Time;durP1;ratioP1;P1;durP2;ratioP2;P2;SDS_P1;SDS_P2;PMS_P1;PMS_P2;Temp;Humidity;BMP_temperature;BMP_pressure;BME280_temperature;BME280_humidity;BME280_pressure;Samples;Min_cycle;Max_cycle;Signal;HPM_P1;HPM_P2
2022/06/29 00:00:19;;;;;;;4.82;2.45;;;21.20;99.90;;;;;;7396776;19;20145;-75
2022/06/29 00:02:46;;;;;;;2.55;2.35;;;21.20;99.90;;;;;;7396342;19;20159;-74
2022/06/29 00:05:18;;;;;;;3.72;2.63;;;21.20;99.90;;;;;;7396099;19;20161;-74
2022/06/29 00:07:44;;;;;;;3.90;2.20;;;21.30;99.90;;;;;;7396976;19;20164;-78
2022/06/29 00:10:11;;;;;;;2.67;2.47;;;21.20;99.90;;;;;;7396662;19;20127;-74
2022/06/29 00:12:38;;;;;;;5.00;2.60;;;21.20;99.90;;;;;;7396406;19;20154;-78
2022/06/29 00:15:05;;;;;;;3.40;2.35;;;21.20;99.90;;;;;;7398200;19;20139;-75
2022/06/29 00:17:32;;;;;;;4.53;2.30;;;21.30;99.90;;;;;;7394533;19;20501;-74
2022/06/29 00:20:00;;;;;;;2.72;2.38;;;21.30;99.90;;;;;;7399968;19;20158;-79
2022/06/29 00:22:28;;;;;;;2.50;2.30;;;21.30;99.90;;;;;;7397548;19;20171;-75
2022/06/29 00:24:54;;;;;;;3.00;2.70;;;21.40;99.90;;;;;;7395468;19;20928;-75
2022/06/29 00:27:21;;;;;;;2.80;2.40;;;21.40;99.90;;;;;;7395151;19;20153;-79
2022/06/29 00:29:47;;;;;;;2.60;2.30;;;21.10;99.90;;;;;;7394064;19;20143;-75
2022/06/29 00:32:14;;;;;;;2.95;2.65;;;21.00;99.90;;;;;;7394436;19;20188;-75
2022/06/29 00:34:39;;;;;;;3.47;2.38;;;21.10;99.90;;;;;;7397657;19;20458;-79
2022/06/29 00:37:05;;;;;;;3.58;2.72;;;21.20;99.90;;;;;;7396541;19;20155;-79
2022/06/29 00:39:32;;;;;;;2.70;2.47;;;21.20;99.90;;;;;;7397296;19;20167;-75
2022/06/29 00:41:58;;;;;;;2.80;2.50;;;20.60;99.90;;;;;;7397228;19;20138;-80
2022/06/29 00:44:24;;;;;;;6.70;2.80;;;20.40;99.90;;;;;;7394615;19;20246;-75
2022/06/29 00:46:51;;;;;;;5.32;2.95;;;20.40;99.90;;;;;;7396363;19;20154;-75
2022/06/29 00:49:19;;;;;;;6.70;3.08;;;20.30;99.90;;;;;;7393824;19;20154;-79
2022/06/29 00:51:47;;;;;;;6.10;3.00;;;20.50;99.90;;;;;;7396555;19;20146;-78
2022/06/29 00:54:20;;;;;;;3.60;3.30;;;20.70;99.90;;;;;;7394070;19;20135;-75
2022/06/29 00:56:46;;;;;;;4.25;3.00;;;20.60;99.90;;;;;;7395168;19;20628;-75
2022/06/29 00:59:15;;;;;;;3.25;2.92;;;20.70;99.90;;;;;;7393337;19;20158;-80
2022/06/29 01:01:41;;;;;;;3.90;2.78;;;20.70;99.90;;;;;;7393589;19;20807;-79
2022/06/29 01:04:07;;;;;;;4.57;3.40;;;20.80;99.90;;;;;;7396958;19;20178;-80
2022/06/29 01:06:33;;;;;;;4.70;3.45;;;20.90;99.90;;;;;;7399237;19;20155;-75
2022/06/29 01:08:59;;;;;;;7.45;2.92;;;21.00;99.90;;;;;;7398555;19;20496;-79
2022/06/29 01:11:25;;;;;;;3.80;3.03;;;21.10;99.90;;;;;;7394421;19;20142;-80
2022/06/29 01:13:52;;;;;;;3.80;3.05;;;21.10;99.90;;;;;;7393291;19;20227;-79
2022/06/29 01:16:18;;;;;;;3.65;2.53;;;21.10;99.90;;;;;;7389647;19;20704;-80
2022/06/29 01:18:43;;;;;;;4.00;2.28;;;20.80;99.90;;;;;;7396010;19;20156;-75
2022/06/29 01:21:13;;;;;;;3.22;2.30;;;20.70;99.90;;;;;;7389559;19;20150;-79
2022/06/29 01:23:39;;;;;;;2.40;2.20;;;20.90;99.90;;;;;;7394360;19;20185;-79
2022/06/29 01:26:06;;;;;;;3.88;2.50;;;20.80;99.90;;;;;;7393349;19;20146;-79
2022/06/29 01:28:33;;;;;;;5.72;2.38;;;20.70;99.90;;;;;;7395806;19;20146;-77
2022/06/29 01:30:59;;;;;;;2.42;2.22;;;20.70;99.90;;;;;;7391606;19;20157;-79
2022/06/29 01:33:26;;;;;;;2.80;2.60;;;20.80;99.90;;;;;;7394845;19;20142;-75
2022/06/29 01:35:51;;;;;;;2.83;2.50;;;20.80;99.90;;;;;;7393847;19;20139;-80
2022/06/29 01:38:20;;;;;;;4.60;2.58;;;20.80;99.90;;;;;;7393136;19;20131;-79
2022/06/29 01:40:46;;;;;;;2.83;2.50;;;20.80;99.90;;;;;;7392318;19;20154;-75
2022/06/29 01:43:12;;;;;;;2.83;2.55;;;20.90;99.90;;;;;;7393057;19;20616;-79
2022/06/29 01:45:38;;;;;;;3.10;2.80;;;20.90;99.90;;;;;;7389355;19;20138;-75
2022/06/29 01:48:05;;;;;;;4.30;2.70;;;20.90;99.90;;;;;;7395170;19;20130;-74
2022/06/29 01:50:30;;;;;;;4.88;2.65;;;20.90;99.90;;;;;;7392843;19;20162;-75
2022/06/29 01:52:56;;;;;;;2.95;2.40;;;20.90;99.90;;;;;;7393988;19;20138;-76
2022/06/29 01:55:22;;;;;;;4.13;2.40;;;20.90;99.90;;;;;;7397499;19;20134;-76
2022/06/29 01:57:48;;;;;;;3.70;2.70;;;20.80;99.90;;;;;;7392314;19;20218;-74
2022/06/29 02:00:14;;;;;;;2.40;2.20;;;20.80;99.90;;;;;;7390587;19;20155;-79
2022/06/29 02:02:40;;;;;;;3.10;2.60;;;20.70;99.90;;;;;;7395130;19;20150;-75
2022/06/29 02:05:06;;;;;;;4.15;2.50;;;20.80;99.90;;;;;;7390430;19;20147;-79
2022/06/29 02:07:32;;;;;;;3.17;2.88;;;20.80;99.90;;;;;;7392746;19;20161;-78
2022/06/29 02:09:58;;;;;;;3.85;2.72;;;20.80;99.90;;;;;;7393876;19;20154;-78
2022/06/29 02:12:24;;;;;;;3.10;2.80;;;20.60;99.90;;;;;;7390619;19;20141;-78
2022/06/29 02:14:49;;;;;;;3.25;2.47;;;20.60;99.90;;;;;;7391787;19;20166;-74
2022/06/29 02:17:15;;;;;;;2.53;2.30;;;20.40;99.90;;;;;;7392419;19;20146;-74
2022/06/29 02:19:41;;;;;;;4.18;2.90;;;20.50;99.90;;;;;;7392670;19;20167;-79
2022/06/29 02:22:07;;;;;;;4.05;2.83;;;20.50;99.90;;;;;;7393477;19;20146;-79
2022/06/29 02:24:32;;;;;;;2.90;2.70;;;20.60;99.90;;;;;;7393696;19;20139;-74
2022/06/29 02:26:58;;;;;;;2.58;2.38;;;20.50;99.90;;;;;;7390886;19;20176;-74
2022/06/29 02:29:24;;;;;;;4.43;2.50;;;20.60;99.90;;;;;;7392575;19;20138;-80
2022/06/29 02:34:46;;;;;;;6.57;2.47;;;20.70;99.90;;;;;;7391945;19;20158;-75
2022/06/29 02:37:16;;;;;;;3.58;2.63;;;20.70;99.90;;;;;;7388715;19;20145;-79
2022/06/29 02:39:43;;;;;;;3.10;2.70;;;20.50;99.90;;;;;;7393244;19;20181;-79
2022/06/29 02:42:10;;;;;;;3.90;2.70;;;20.50;99.90;;;;;;7392671;19;20202;-79
2022/06/29 02:44:37;;;;;;;6.15;2.80;;;20.60;99.90;;;;;;7390887;19;20138;-78
2022/06/29 02:47:07;;;;;;;2.95;2.70;;;20.60;99.90;;;;;;7392948;19;20138;-79
2022/06/29 02:49:33;;;;;;;3.10;2.47;;;20.60;99.90;;;;;;7391396;19;20223;-74
2022/06/29 02:51:59;;;;;;;3.55;3.13;;;20.40;99.90;;;;;;7391764;19;20142;-75
2022/06/29 02:54:25;;;;;;;4.18;2.92;;;20.10;99.90;;;;;;7390343;19;20634;-79
2022/06/29 02:56:53;;;;;;;3.47;2.95;;;19.90;99.90;;;;;;7394883;19;20174;-79
2022/06/29 02:59:20;;;;;;;3.00;2.35;;;19.80;99.90;;;;;;7390871;19;20138;-77
2022/06/29 03:01:46;;;;;;;7.28;3.00;;;19.70;99.90;;;;;;7393126;19;20146;-77
2022/06/29 03:04:12;;;;;;;3.10;2.45;;;19.80;99.90;;;;;;7388049;19;20253;-75
2022/06/29 03:06:38;;;;;;;3.22;2.72;;;20.00;99.90;;;;;;7393552;19;20155;-79
2022/06/29 03:09:04;;;;;;;3.50;2.95;;;20.10;99.90;;;;;;7393227;19;20513;-78
2022/06/29 03:11:31;;;;;;;3.78;2.58;;;20.10;99.90;;;;;;7390484;19;20145;-75
2022/06/29 03:13:57;;;;;;;3.75;3.10;;;20.20;99.90;;;;;;7390111;19;20154;-76
2022/06/29 03:16:23;;;;;;;4.10;3.30;;;20.30;99.90;;;;;;7392944;19;20592;-79
2022/06/29 03:18:49;;;;;;;3.40;3.08;;;20.30;99.90;;;;;;7392587;19;20205;-75
2022/06/29 03:21:16;;;;;;;3.33;3.03;;;20.40;99.90;;;;;;7385794;19;20150;-79
2022/06/29 03:23:42;;;;;;;3.10;2.80;;;20.40;99.90;;;;;;7391030;19;20173;-75
2022/06/29 03:26:08;;;;;;;5.90;3.53;;;20.40;99.90;;;;;;7392180;19;20154;-75
2022/06/29 03:28:34;;;;;;;4.03;2.88;;;20.50;99.90;;;;;;7389999;19;20154;-74
2022/06/29 03:31:00;;;;;;;3.92;3.50;;;20.60;99.90;;;;;;7389998;19;20126;-75
2022/06/29 03:33:26;;;;;;;3.22;2.90;;;20.60;99.90;;;;;;7390982;19;20613;-74
2022/06/29 03:35:51;;;;;;;4.35;2.90;;;20.60;99.90;;;;;;7388497;19;20139;-74
2022/06/29 03:38:17;;;;;;;4.13;3.00;;;20.50;99.90;;;;;;7388944;19;20135;-78
2022/06/29 03:40:43;;;;;;;3.42;2.78;;;20.40;99.90;;;;;;7387825;19;20134;-75
2022/06/29 03:43:09;;;;;;;2.97;2.75;;;20.30;99.90;;;;;;7392831;19;20166;-74
2022/06/29 03:45:35;;;;;;;3.83;2.88;;;20.40;99.90;;;;;;7385328;19;20609;-75
2022/06/29 03:48:01;;;;;;;5.13;3.42;;;20.40;99.90;;;;;;7390468;19;20142;-75
2022/06/29 03:50:27;;;;;;;4.68;3.40;;;20.40;99.90;;;;;;7392712;19;20145;-78
2022/06/29 03:52:53;;;;;;;5.00;2.60;;;20.30;99.90;;;;;;7389798;19;20146;-76
2022/06/29 03:55:18;;;;;;;3.53;2.53;;;20.20;99.90;;;;;;7389685;19;20169;-76
2022/06/29 03:57:44;;;;;;;6.65;2.92;;;20.20;99.90;;;;;;7385487;19;20183;-79
2022/06/29 04:00:10;;;;;;;4.10;3.20;;;20.20;99.90;;;;;;7390689;19;20146;-74
2022/06/29 04:02:36;;;;;;;3.67;3.20;;;20.10;99.90;;;;;;7390190;19;20143;-79
2022/06/29 04:05:04;;;;;;;4.10;2.90;;;20.20;99.90;;;;;;7392528;19;20171;-75
2022/06/29 04:07:34;;;;;;;3.85;2.75;;;20.10;99.90;;;;;;7389959;19;20605;-75
2022/06/29 04:10:00;;;;;;;3.58;2.97;;;20.10;99.90;;;;;;7389891;19;20231;-75
2022/06/29 04:12:34;;;;;;;3.63;3.30;;;20.20;99.90;;;;;;7393177;19;20131;-75
2022/06/29 04:15:01;;;;;;;3.10;2.50;;;20.30;99.90;;;;;;7386335;19;20135;-79
2022/06/29 04:17:27;;;;;;;3.55;3.10;;;20.30;99.90;;;;;;7389997;19;20755;-75
2022/06/29 04:19:53;;;;;;;4.05;2.92;;;20.00;99.90;;;;;;7391634;19;20174;-74
2022/06/29 04:22:20;;;;;;;3.35;3.05;;;20.20;99.90;;;;;;7394888;19;20131;-74
2022/06/29 04:24:47;;;;;;;3.75;3.20;;;20.30;99.90;;;;;;7392944;19;20143;-75
2022/06/29 04:27:13;;;;;;;3.60;3.00;;;20.10;99.90;;;;;;7390931;19;20167;-79
2022/06/29 04:29:38;;;;;;;4.85;3.55;;;20.20;99.90;;;;;;7388430;19;20154;-75
2022/06/29 04:32:04;;;;;;;3.72;3.33;;;20.30;99.90;;;;;;7392016;19;20147;-75
2022/06/29 04:34:30;;;;;;;4.28;3.53;;;20.20;99.90;;;;;;7390002;19;20150;-74
2022/06/29 04:36:58;;;;;;;4.10;3.10;;;20.30;99.90;;;;;;7400232;19;20139;-74
2022/06/29 04:39:24;;;;;;;5.00;3.50;;;20.50;99.90;;;;;;7397305;19;20159;-75
2022/06/29 04:41:52;;;;;;;4.55;3.78;;;20.60;99.90;;;;;;7398006;19;20154;-76
2022/06/29 04:44:18;;;;;;;4.80;3.70;;;20.40;99.90;;;;;;7400629;19;20535;-79
2022/06/29 04:46:44;;;;;;;4.65;3.35;;;20.50;99.90;;;;;;7394735;19;20175;-74
2022/06/29 04:49:10;;;;;;;6.15;3.67;;;20.60;99.90;;;;;;7396508;19;20183;-78
2022/06/29 04:51:36;;;;;;;4.30;3.60;;;20.60;99.90;;;;;;7398116;19;20169;-74
2022/06/29 04:54:03;;;;;;;4.28;3.88;;;20.50;99.90;;;;;;7396556;19;20147;-78
2022/06/29 04:56:31;;;;;;;4.22;3.83;;;20.40;99.90;;;;;;7395703;19;20150;-74
2022/06/29 04:58:58;;;;;;;4.05;3.60;;;20.40;99.90;;;;;;7401194;19;20134;-75
2022/06/29 05:01:25;;;;;;;5.00;3.67;;;20.50;99.90;;;;;;7394699;19;20150;-75
2022/06/29 05:03:52;;;;;;;5.00;3.50;;;20.50;99.90;;;;;;7397456;19;20635;-77
2022/06/29 05:06:18;;;;;;;4.63;4.10;;;20.50;99.90;;;;;;7393595;19;20146;-74
2022/06/29 05:08:44;;;;;;;6.38;3.78;;;20.40;99.90;;;;;;7394793;19;20894;-78
2022/06/29 05:11:13;;;;;;;6.25;4.15;;;20.50;99.90;;;;;;7397368;19;20150;-77
2022/06/29 05:13:40;;;;;;;3.90;3.53;;;20.60;99.90;;;;;;7396772;19;20494;-78
2022/06/29 05:16:06;;;;;;;7.28;5.35;;;20.30;99.90;;;;;;7401592;19;20210;-75
2022/06/29 05:18:33;;;;;;;7.18;4.30;;;20.10;99.90;;;;;;7395473;19;20172;-77
2022/06/29 05:20:59;;;;;;;4.25;3.85;;;20.30;99.90;;;;;;7392704;19;20158;-79
2022/06/29 05:23:25;;;;;;;4.07;3.67;;;20.40;99.90;;;;;;7395464;19;20151;-78
2022/06/29 05:25:52;;;;;;;4.18;3.63;;;20.40;99.90;;;;;;7394343;19;20218;-79
2022/06/29 05:28:18;;;;;;;3.80;3.10;;;20.50;99.90;;;;;;7394556;19;20135;-75
2022/06/29 05:30:44;;;;;;;5.57;3.40;;;20.50;99.90;;;;;;7392268;19;20153;-75
2022/06/29 05:33:10;;;;;;;4.53;3.88;;;20.60;99.90;;;;;;7392581;19;20582;-76
2022/06/29 05:35:36;;;;;;;5.65;4.75;;;20.60;99.90;;;;;;7393625;19;20177;-79
2022/06/29 05:38:02;;;;;;;4.93;3.90;;;20.60;99.90;;;;;;7390999;19;20135;-76
2022/06/29 05:40:30;;;;;;;3.25;2.95;;;20.60;99.90;;;;;;7394277;19;20610;-76
2022/06/29 05:42:57;;;;;;;4.15;3.75;;;20.30;99.90;;;;;;7394274;19;20147;-77
2022/06/29 05:45:24;;;;;;;5.03;3.90;;;20.40;99.90;;;;;;7394569;19;20915;-77
2022/06/29 05:47:52;;;;;;;5.40;4.00;;;20.60;99.90;;;;;;7393327;19;20157;-78
2022/06/29 05:50:18;;;;;;;5.05;4.07;;;20.70;99.90;;;;;;7393163;19;20141;-77
2022/06/29 05:52:44;;;;;;;4.65;4.22;;;20.70;99.90;;;;;;7389468;19;20142;-75
2022/06/29 05:55:10;;;;;;;5.13;4.13;;;20.60;99.90;;;;;;7393693;19;20150;-79
2022/06/29 05:57:37;;;;;;;6.18;5.03;;;20.60;99.90;;;;;;7404309;19;20657;-76
2022/06/29 06:00:05;;;;;;;5.78;4.40;;;20.70;99.90;;;;;;7392139;19;20135;-76
2022/06/29 06:02:30;;;;;;;7.07;4.55;;;20.50;99.90;;;;;;7394403;19;20566;-76
2022/06/29 06:04:56;;;;;;;4.55;4.10;;;20.60;99.90;;;;;;7386276;19;20146;-77
2022/06/29 06:07:22;;;;;;;5.43;3.90;;;20.90;99.90;;;;;;7392173;19;20138;-79
2022/06/29 06:09:48;;;;;;;5.03;4.35;;;21.10;99.90;;;;;;7392176;19;20488;-78
2022/06/29 06:12:14;;;;;;;5.38;4.68;;;21.20;99.90;;;;;;7392197;19;20173;-76
2022/06/29 06:14:39;;;;;;;6.25;4.07;;;21.20;99.90;;;;;;7392376;19;20142;-79
2022/06/29 06:17:05;;;;;;;5.50;3.97;;;21.40;99.90;;;;;;7395121;19;20218;-77
2022/06/29 06:19:31;;;;;;;6.35;3.80;;;21.90;99.90;;;;;;7394391;19;20150;-77
2022/06/29 06:21:57;;;;;;;8.60;3.78;;;22.00;99.90;;;;;;7392814;19;20492;-78
2022/06/29 06:24:23;;;;;;;4.80;4.00;;;22.20;99.90;;;;;;7388991;19;20142;-78
2022/06/29 06:26:49;;;;;;;4.75;3.78;;;22.20;99.90;;;;;;7387526;19;20154;-77
2022/06/29 06:29:14;;;;;;;4.77;4.10;;;22.60;99.90;;;;;;7386898;19;20411;-77
2022/06/29 06:31:40;;;;;;;9.02;4.50;;;23.00;99.90;;;;;;7391534;19;20141;-76
2022/06/29 06:34:06;;;;;;;4.53;4.07;;;23.50;99.90;;;;;;7391027;19;20254;-75
2022/06/29 06:36:32;;;;;;;5.22;3.80;;;23.80;99.90;;;;;;7391546;19;20156;-75
2022/06/29 06:38:58;;;;;;;5.65;3.97;;;24.00;99.90;;;;;;7387922;19;20486;-76
2022/06/29 06:41:25;;;;;;;5.55;3.80;;;24.10;99.90;;;;;;7391384;19;20209;-75
2022/06/29 06:43:56;;;;;;;3.92;3.45;;;24.30;99.90;;;;;;7390019;19;20158;-75
2022/06/29 06:46:22;;;;;;;3.85;3.47;;;24.60;99.90;;;;;;7390037;19;20604;-77
2022/06/29 06:48:50;;;;;;;4.78;4.10;;;24.60;99.90;;;;;;7389422;19;20233;-76
2022/06/29 06:51:20;;;;;;;5.57;3.78;;;24.70;99.90;;;;;;7391447;19;20225;-76
2022/06/29 06:53:47;;;;;;;5.50;3.85;;;24.60;99.90;;;;;;7390314;19;20146;-77
2022/06/29 06:56:14;;;;;;;4.10;3.60;;;24.50;99.90;;;;;;7389142;19;20159;-75
2022/06/29 06:58:41;;;;;;;4.45;4.05;;;24.70;99.90;;;;;;7386564;19;20165;-76
2022/06/29 07:01:08;;;;;;;6.18;4.15;;;25.00;99.90;;;;;;7385968;19;20591;-76
2022/06/29 07:03:38;;;;;;;3.85;3.30;;;25.00;99.90;;;;;;7391334;19;20858;-77
2022/06/29 07:06:06;;;;;;;4.03;3.53;;;25.00;99.90;;;;;;7387981;19;20150;-77
2022/06/29 07:08:33;;;;;;;4.13;3.50;;;25.20;99.90;;;;;;7396189;19;20170;-76
2022/06/29 07:10:59;;;;;;;5.78;3.65;;;25.10;99.90;;;;;;7394736;19;20158;-78
2022/06/29 07:13:26;;;;;;;6.97;3.38;;;25.50;99.90;;;;;;7392759;19;20609;-77
2022/06/29 07:15:52;;;;;;;5.10;3.70;;;25.90;99.90;;;;;;7392304;19;20701;-76
2022/06/29 07:18:18;;;;;;;4.18;3.25;;;25.90;99.90;;;;;;7398244;19;20134;-76
2022/06/29 07:20:43;;;;;;;4.32;3.50;;;26.00;99.90;;;;;;7389065;19;20607;-76
2022/06/29 07:23:09;;;;;;;5.90;3.92;;;26.40;99.90;;;;;;7392620;19;20177;-77
2022/06/29 07:25:35;;;;;;;6.45;3.72;;;26.40;99.90;;;;;;7393059;19;20223;-74
2022/06/29 07:28:01;;;;;;;9.27;4.00;;;26.40;99.90;;;;;;7391197;19;20190;-76
2022/06/29 07:30:27;;;;;;;4.72;3.20;;;26.50;99.90;;;;;;7392157;19;20133;-78
2022/06/29 07:32:53;;;;;;;5.85;3.38;;;26.60;99.90;;;;;;7389576;19;20123;-76
2022/06/29 07:35:19;;;;;;;8.27;3.50;;;26.60;99.90;;;;;;7388729;19;20139;-76
2022/06/29 07:37:44;;;;;;;5.10;3.53;;;26.70;99.90;;;;;;7396179;19;20142;-76
2022/06/29 07:40:11;;;;;;;5.28;3.25;;;26.80;99.90;;;;;;7403361;19;20139;-76
2022/06/29 07:42:38;;;;;;;5.68;3.38;;;26.90;99.90;;;;;;7389783;19;20143;-76
2022/06/29 07:45:05;;;;;;;3.90;3.60;;;27.20;99.90;;;;;;7388749;19;20768;-76
2022/06/29 07:47:31;;;;;;;4.30;3.65;;;27.40;99.90;;;;;;7387672;19;20131;-75
2022/06/29 07:49:58;;;;;;;4.10;3.22;;;27.60;99.90;;;;;;7390153;19;20146;-76
2022/06/29 07:52:24;;;;;;;4.50;3.30;;;27.40;99.90;;;;;;7391435;19;20135;-75
2022/06/29 07:54:50;;;;;;;7.15;3.47;;;27.40;99.90;;;;;;7392038;19;20157;-77
2022/06/29 07:57:17;;;;;;;4.03;3.30;;;27.50;99.90;;;;;;7384610;19;20788;-77
2022/06/29 07:59:44;;;;;;;4.85;3.15;;;27.70;99.90;;;;;;7388586;19;20154;-76
2022/06/29 08:02:10;;;;;;;6.90;3.50;;;27.50;99.90;;;;;;7387907;19;20138;-76
2022/06/29 08:04:36;;;;;;;10.43;3.70;;;27.20;99.90;;;;;;7385425;19;20189;-76
2022/06/29 08:07:02;;;;;;;5.93;3.30;;;26.90;99.90;;;;;;7387535;19;20147;-76
2022/06/29 08:09:28;;;;;;;6.32;3.50;;;26.50;99.90;;;;;;7386561;19;20669;-76
2022/06/29 08:11:55;;;;;;;3.63;3.13;;;26.50;99.90;;;;;;7391102;19;20153;-76
2022/06/29 08:14:21;;;;;;;3.70;3.17;;;26.50;99.90;;;;;;7395803;19;20987;-76
2022/06/29 08:16:46;;;;;;;4.00;3.20;;;26.70;99.90;;;;;;7397168;19;20154;-75
2022/06/29 08:19:12;;;;;;;5.80;3.47;;;27.30;99.90;;;;;;7395207;19;20166;-76
2022/06/29 08:21:38;;;;;;;3.75;2.72;;;27.60;99.90;;;;;;7393403;19;20185;-76
2022/06/29 08:24:04;;;;;;;3.58;3.28;;;27.90;99.90;;;;;;7395570;19;20175;-77
2022/06/29 08:26:30;;;;;;;3.75;2.78;;;28.10;99.90;;;;;;7393941;19;20127;-76
2022/06/29 08:28:56;;;;;;;3.92;3.25;;;27.80;99.90;;;;;;7389425;19;20127;-78
2022/06/29 08:31:22;;;;;;;4.30;3.53;;;27.70;99.90;;;;;;7393971;19;20130;-77
2022/06/29 08:33:47;;;;;;;6.30;3.20;;;27.50;99.90;;;;;;7394943;19;20574;-76
2022/06/29 08:36:13;;;;;;;3.30;2.92;;;27.50;99.90;;;;;;7395584;19;20150;-76
2022/06/29 08:38:39;;;;;;;5.07;3.20;;;27.60;99.90;;;;;;7393011;19;20147;-75
2022/06/29 08:41:06;;;;;;;4.70;3.20;;;27.50;99.90;;;;;;7394802;19;20201;-75
2022/06/29 08:43:32;;;;;;;3.58;3.22;;;27.60;99.90;;;;;;7396177;19;20142;-76
2022/06/29 08:45:58;;;;;;;3.72;3.15;;;27.50;99.90;;;;;;7391906;19;20142;-78
2022/06/29 08:48:26;;;;;;;7.07;4.25;;;27.60;99.90;;;;;;7392237;19;20582;-78
2022/06/29 08:50:54;;;;;;;3.10;2.80;;;27.80;99.90;;;;;;7390091;19;20161;-78
2022/06/29 08:53:20;;;;;;;5.00;4.50;;;28.20;99.90;;;;;;7393431;19;20154;-77
2022/06/29 08:55:48;;;;;;;7.22;3.42;;;28.50;99.90;;;;;;7392548;19;20153;-78
2022/06/29 08:58:16;;;;;;;10.73;8.07;;;28.80;99.90;;;;;;7393255;19;20134;-74
2022/06/29 09:00:42;;;;;;;3.92;3.50;;;28.80;99.90;;;;;;7393651;19;20566;-76
2022/06/29 09:03:10;;;;;;;3.05;2.75;;;28.90;99.90;;;;;;7387385;19;20167;-77
2022/06/29 09:05:37;;;;;;;3.38;3.08;;;28.60;99.90;;;;;;7392477;19;20131;-75
2022/06/29 09:08:03;;;;;;;4.28;3.00;;;28.40;99.90;;;;;;7390039;19;20174;-75
2022/06/29 09:10:30;;;;;;;3.38;3.03;;;28.00;99.90;;;;;;7391726;19;20127;-76
2022/06/29 09:12:58;;;;;;;4.50;3.10;;;27.80;99.90;;;;;;7395912;19;20486;-76
2022/06/29 09:15:39;;;;;;;4.25;3.25;;;27.50;99.90;;;;;;7389125;19;20146;-74
2022/06/29 09:18:22;;;;;;;3.83;3.28;;;27.30;99.90;;;;;;7391534;19;20131;-76
2022/06/29 09:20:56;;;;;;;4.47;2.97;;;27.00;99.90;;;;;;7385352;19;20184;-76
2022/06/29 09:23:23;;;;;;;3.83;3.00;;;27.00;99.90;;;;;;7393869;19;20142;-75
2022/06/29 09:25:49;;;;;;;4.07;3.28;;;27.20;99.90;;;;;;7394231;19;20222;-74
2022/06/29 09:28:21;;;;;;;3.55;2.95;;;27.30;99.90;;;;;;7393398;19;20237;-76
2022/06/29 09:30:47;;;;;;;3.65;3.10;;;27.20;99.90;;;;;;7390495;19;20546;-75
2022/06/29 09:33:14;;;;;;;3.50;3.17;;;27.00;99.90;;;;;;7390437;19;20493;-75
2022/06/29 09:35:40;;;;;;;4.13;3.35;;;27.20;99.90;;;;;;7395004;19;20139;-75
2022/06/29 09:38:21;;;;;;;4.55;3.55;;;27.10;99.90;;;;;;7393868;19;20154;-74
2022/06/29 09:40:57;;;;;;;3.00;2.70;;;27.20;99.90;;;;;;7393616;19;20162;-76
2022/06/29 09:43:23;;;;;;;3.70;3.22;;;27.30;99.90;;;;;;7391978;19;20150;-75
2022/06/29 09:45:52;;;;;;;3.75;2.90;;;27.50;99.90;;;;;;7389172;19;20531;-75
2022/06/29 09:48:22;;;;;;;8.18;5.25;;;27.30;99.90;;;;;;7393440;19;20146;-77
2022/06/29 09:50:52;;;;;;;3.33;3.03;;;27.50;99.90;;;;;;7392059;19;20138;-76
2022/06/29 09:53:23;;;;;;;3.30;3.00;;;27.80;99.90;;;;;;7392115;19;20135;-76
2022/06/29 09:55:54;;;;;;;2.95;2.72;;;27.80;99.90;;;;;;7391604;19;20147;-75
2022/06/29 09:58:28;;;;;;;5.13;3.47;;;27.80;99.90;;;;;;7391797;19;20210;-75
2022/06/29 10:03:39;;;;;;;3.10;2.80;;;27.60;99.90;;;;;;7389722;19;20161;-75
2022/06/29 10:06:09;;;;;;;4.90;3.20;;;26.80;99.90;;;;;;7393429;19;20513;-77
2022/06/29 10:08:35;;;;;;;5.10;2.90;;;26.70;99.90;;;;;;7390823;19;20229;-75
2022/06/29 10:14:04;;;;;;;3.75;3.05;;;26.50;99.90;;;;;;7393778;19;20130;-77
2022/06/29 10:16:54;;;;;;;3.25;2.63;;;26.10;99.90;;;;;;7390899;19;20167;-76
2022/06/29 10:19:43;;;;;;;4.10;2.80;;;26.00;99.90;;;;;;7390882;19;20179;-77
2022/06/29 10:22:09;;;;;;;4.07;3.25;;;26.00;99.90;;;;;;7388664;19;20146;-75
2022/06/29 10:24:37;;;;;;;4.60;2.80;;;25.90;99.90;;;;;;7391702;19;20503;-77
2022/06/29 10:27:07;;;;;;;7.28;4.05;;;26.00;99.90;;;;;;7390104;19;20146;-77
2022/06/29 10:29:33;;;;;;;3.33;3.03;;;26.00;99.90;;;;;;7392076;19;20145;-76
2022/06/29 10:32:05;;;;;;;4.13;3.25;;;26.00;99.90;;;;;;7389710;19;20139;-77
2022/06/29 10:34:31;;;;;;;4.03;3.28;;;26.00;99.90;;;;;;7388741;19;20138;-75
2022/06/29 10:37:04;;;;;;;5.82;3.05;;;26.00;99.90;;;;;;7389355;19;20148;-75
2022/06/29 10:39:45;;;;;;;3.10;2.80;;;26.10;99.90;;;;;;7389413;19;20797;-74
2022/06/29 10:45:19;;;;;;;4.03;2.90;;;25.70;99.90;;;;;;7387863;19;20146;-75
2022/06/29 10:48:07;;;;;;;6.30;2.75;;;25.60;99.90;;;;;;7389767;19;20218;-75
2022/06/29 10:50:40;;;;;;;4.32;3.92;;;25.50;99.90;;;;;;7383602;19;20383;-77
2022/06/29 10:53:17;;;;;;;4.93;3.60;;;25.60;99.90;;;;;;7389340;19;20478;-76
2022/06/29 10:55:54;;;;;;;3.83;2.80;;;25.80;99.90;;;;;;7392324;19;20145;-74
2022/06/29 10:58:21;;;;;;;5.20;2.95;;;25.90;99.90;;;;;;7390413;19;20142;-75
2022/06/29 11:00:53;;;;;;;3.97;2.78;;;25.90;99.90;;;;;;7390986;19;20475;-75
2022/06/29 11:03:26;;;;;;;3.95;2.90;;;25.80;99.90;;;;;;7386324;19;20169;-75
2022/06/29 11:16:58;;;;;;;4.82;2.70;;;26.00;99.90;;;;;;7386880;19;20513;-75
2022/06/29 11:19:31;;;;;;;2.88;2.53;;;26.00;99.90;;;;;;7387137;19;20127;-75
2022/06/29 11:22:16;;;;;;;3.17;2.63;;;26.00;99.90;;;;;;7387285;19;20471;-76
2022/06/29 11:24:51;;;;;;;2.88;2.60;;;26.00;99.90;;;;;;7388789;19;20142;-77
2022/06/29 11:27:35;;;;;;;3.63;2.40;;;26.10;99.90;;;;;;7388687;19;20134;-77
2022/06/29 11:30:01;;;;;;;3.60;2.85;;;26.00;99.90;;;;;;7389560;19;20134;-76
2022/06/29 11:32:38;;;;;;;6.20;2.88;;;25.90;99.90;;;;;;7390772;19;20147;-76
2022/06/29 11:35:06;;;;;;;5.20;3.13;;;26.00;99.90;;;;;;7389326;19;20154;-77
2022/06/29 11:37:32;;;;;;;6.45;3.35;;;26.20;99.90;;;;;;7385807;19;20127;-77
2022/06/29 11:39:58;;;;;;;3.97;2.47;;;26.40;99.90;;;;;;7390570;19;20210;-77
2022/06/29 11:45:19;;;;;;;2.50;2.30;;;26.30;99.90;;;;;;7395653;19;20155;-76
2022/06/29 11:47:53;;;;;;;6.00;2.53;;;26.50;99.90;;;;;;7398202;19;20138;-76
2022/06/29 11:50:20;;;;;;;5.00;2.80;;;26.80;99.90;;;;;;7396142;19;20210;-76
2022/06/29 11:52:48;;;;;;;4.68;3.15;;;27.10;99.90;;;;;;7395376;19;20145;-78
2022/06/29 11:55:14;;;;;;;5.40;3.28;;;27.20;99.90;;;;;;7395857;19;20151;-78
2022/06/29 11:57:40;;;;;;;4.00;3.15;;;27.20;99.90;;;;;;7396246;19;20139;-76
2022/06/29 12:00:08;;;;;;;3.78;2.60;;;27.10;99.90;;;;;;7397822;19;20150;-77
2022/06/29 12:02:34;;;;;;;2.85;2.47;;;27.00;99.90;;;;;;7395767;19;20151;-76
2022/06/29 12:05:02;;;;;;;6.32;3.13;;;26.90;99.90;;;;;;7393889;19;20142;-76
2022/06/29 12:07:29;;;;;;;6.50;2.90;;;26.80;99.90;;;;;;7391169;19;20826;-76
2022/06/29 12:09:57;;;;;;;3.88;2.70;;;26.90;99.90;;;;;;7396183;19;20206;-77
2022/06/29 12:12:23;;;;;;;4.95;4.10;;;26.80;99.90;;;;;;7392729;19;20146;-77
2022/06/29 12:14:48;;;;;;;3.10;2.78;;;26.80;99.90;;;;;;7397518;19;20157;-77
2022/06/29 12:17:14;;;;;;;5.30;3.53;;;26.80;99.90;;;;;;7395055;19;20151;-77
2022/06/29 12:19:44;;;;;;;3.00;2.50;;;27.00;99.90;;;;;;7397873;19;20919;-77
2022/06/29 12:22:10;;;;;;;4.00;2.15;;;27.30;99.90;;;;;;7396445;19;20130;-77
2022/06/29 12:24:36;;;;;;;2.60;2.40;;;27.40;99.90;;;;;;7394676;19;20223;-77
2022/06/29 12:27:02;;;;;;;3.08;2.72;;;27.40;99.90;;;;;;7394602;19;20605;-76
2022/06/29 12:29:28;;;;;;;2.92;2.72;;;27.40;99.90;;;;;;7396438;19;20538;-77
2022/06/29 12:31:54;;;;;;;2.85;2.45;;;27.40;99.90;;;;;;7396038;19;20505;-77
2022/06/29 12:34:20;;;;;;;3.08;2.63;;;27.10;99.90;;;;;;7394677;19;20150;-77
2022/06/29 12:36:46;;;;;;;4.68;3.13;;;27.30;99.90;;;;;;7395161;19;20138;-77
2022/06/29 12:39:12;;;;;;;5.20;3.00;;;27.40;99.90;;;;;;7396278;19;20165;-75
2022/06/29 12:41:38;;;;;;;3.70;2.47;;;27.40;99.90;;;;;;7395003;19;20135;-76
2022/06/29 12:44:04;;;;;;;4.40;2.28;;;27.30;99.90;;;;;;7396461;19;20130;-76
2022/06/29 12:46:31;;;;;;;2.63;1.90;;;27.20;99.90;;;;;;7394490;19;20611;-77
2022/06/29 12:48:57;;;;;;;2.97;1.90;;;27.10;99.90;;;;;;7393924;19;20615;-77
2022/06/29 12:51:24;;;;;;;2.97;2.22;;;27.00;99.90;;;;;;7394285;19;20135;-77
2022/06/29 12:53:50;;;;;;;2.47;2.28;;;27.20;99.90;;;;;;7396603;19;20174;-78
2022/06/29 12:56:17;;;;;;;3.33;2.05;;;27.30;99.90;;;;;;7395046;19;20131;-77
2022/06/29 12:58:43;;;;;;;3.25;2.08;;;27.30;99.90;;;;;;7396003;19;20608;-77
2022/06/29 13:01:09;;;;;;;5.07;2.10;;;27.40;99.90;;;;;;7394365;19;20138;-76
2022/06/29 13:03:36;;;;;;;4.00;2.20;;;27.40;99.90;;;;;;7392619;19;20178;-76
2022/06/29 13:06:02;;;;;;;7.50;2.50;;;27.30;99.90;;;;;;7391626;19;20158;-76
2022/06/29 13:08:28;;;;;;;4.63;2.45;;;27.30;99.90;;;;;;7383291;19;20146;-75
2022/06/29 13:10:54;;;;;;;2.55;2.30;;;27.30;99.90;;;;;;7384662;19;20146;-75
2022/06/29 13:13:20;;;;;;;4.03;2.20;;;27.20;99.90;;;;;;7384931;19;20490;-77